Time;durP1;ratioP1;P1;durP2;ratioP2;P2;SDS_P1;SDS_P2;PMS_P1;PMS_P2;Temp;Humidity;BMP_temperature;BMP_pressure;BME280_temperature;BME280_humidity;BME280_pressure;Samples;Min_cycle;Max_cycle;Signal;HPM_P1;HPM_P2
2022/08/26 05:27:02;;;;;;;;;14.25;10.75;;;;;22.03;62.14;101603.38;2479538;22;46894;-84
2022/08/26 05:28:15;;;;;;;;;19.75;16.75;;;;;22.05;61.95;101610.47;2421763;28;45328;-85
2022/08/26 05:29:25;;;;;;;;;15.75;13.25;;;;;22.06;62.82;101606.81;2419597;28;47308;-84
2022/08/26 05:30:37;;;;;;;;;19.25;15.00;;;;;22.06;62.39;101606.81;2420515;28;45372;-85
2022/08/26 05:31:50;;;;;;;;;16.25;16.00;;;;;22.03;62.11;101608.72;2421578;28;45927;-84
2022/08/26 05:33:01;;;;;;;;;13.75;10.25;;;;;22.05;62.31;101621.16;2426674;28;45463;-82
2022/08/26 05:34:11;;;;;;;;;13.25;11.75;;;;;22.03;61.86;101610.53;2418599;28;47323;-83
2022/08/26 05:35:22;;;;;;;;;19.25;16.25;;;;;22.02;61.68;101612.38;2419644;28;44740;-82
2022/08/26 05:36:34;;;;;;;;;17.75;14.00;;;;;22.05;62.11;101613.13;2418646;28;46233;-82
2022/08/26 05:37:44;;;;;;;;;15.50;13.25;;;;;22.03;62.28;101610.53;2420152;28;45404;-82
2022/08/26 05:38:56;;;;;;;;;11.50;10.25;;;;;22.03;61.85;101608.72;2413705;28;45439;-83
2022/08/26 05:40:07;;;;;;;;;14.75;13.75;;;;;22.05;62.16;101613.13;2413743;28;44828;-82
2022/08/26 05:41:27;;;;;;;;;16.50;12.75;;;;;22.05;62.18;101621.16;2419048;28;47088;-83
2022/08/26 05:42:37;;;;;;;;;19.25;16.00;;;;;22.03;61.95;101619.44;2417761;28;46495;-83
2022/08/26 05:43:48;;;;;;;;;16.50;15.00;;;;;22.01;62.17;101620.50;2416864;28;46132;-84
2022/08/26 05:44:58;;;;;;;;;17.50;16.00;;;;;22.00;61.57;101625.00;2420931;28;45227;-83
2022/08/26 05:46:09;;;;;;;;;14.50;14.50;;;;;21.98;62.14;101620.69;2415085;28;45456;-84
2022/08/26 05:47:19;;;;;;;;;14.00;13.25;;;;;21.97;61.72;101630.56;2418734;28;45416;-84
2022/08/26 05:48:30;;;;;;;;;17.75;17.50;;;;;21.96;62.22;101627.97;2419483;28;46694;-82
2022/08/26 05:49:40;;;;;;;;;13.00;10.00;;;;;21.92;62.32;101622.88;2416892;28;44784;-83
2022/08/26 05:50:52;;;;;;;;;20.00;16.50;;;;;21.92;62.45;101627.34;2419534;28;46944;-83
2022/08/26 05:52:02;;;;;;;;;16.00;11.25;;;;;21.90;62.23;101629.28;2419819;28;45696;-83
2022/08/26 05:53:15;;;;;;;;;15.50;13.75;;;;;21.89;62.20;101625.75;2417142;28;45389;-82
2022/08/26 05:54:25;;;;;;;;;14.50;12.75;;;;;21.89;62.00;101632.91;2415024;28;45415;-83
2022/08/26 05:55:47;;;;;;;;;17.50;14.00;;;;;21.90;62.52;101630.09;2421336;28;46562;-82
2022/08/26 05:56:57;;;;;;;;;14.25;13.75;;;;;21.90;62.17;101630.09;2421602;28;45239;-83
2022/08/26 05:58:07;;;;;;;;;18.00;14.50;;;;;21.93;62.22;101631.72;2420525;28;48382;-82
2022/08/26 05:59:18;;;;;;;;;14.75;14.00;;;;;21.94;62.49;101640.63;2421237;28;44594;-82
2022/08/26 06:00:29;;;;;;;;;15.75;13.50;;;;;21.95;62.12;101639.66;2421123;28;45580;-83
2022/08/26 06:01:40;;;;;;;;;16.75;12.75;;;;;21.95;62.64;101631.63;2421099;28;45446;-81
2022/08/26 06:02:51;;;;;;;;;20.50;16.75;;;;;21.94;62.34;101633.44;2421216;28;45472;-82
2022/08/26 06:04:01;;;;;;;;;19.00;17.25;;;;;21.92;62.89;101627.34;2417215;28;44736;-82
2022/08/26 06:05:12;;;;;;;;;15.25;14.75;;;;;21.90;62.75;101623.94;2419490;28;45365;-82
2022/08/26 06:06:29;;;;;;;;;17.50;14.00;;;;;21.93;62.55;101637.06;2421802;28;45309;-82
2022/08/26 06:09:09;;;;;;;;;20.75;16.75;;;;;21.94;62.56;101625.41;2421871;28;44641;-82
2022/08/26 06:10:19;;;;;;;;;16.50;16.50;;;;;21.95;62.66;101627.16;2421645;28;46552;-82
2022/08/26 06:11:31;;;;;;;;;22.75;18.00;;;;;21.97;62.69;101630.56;2422332;28;45436;-83
2022/08/26 06:12:42;;;;;;;;;18.00;15.50;;;;;21.98;62.66;101628.72;2422244;28;46676;-83
2022/08/26 06:13:54;;;;;;;;;16.50;16.50;;;;;21.96;62.72;101623.50;2423459;28;45423;-83
2022/08/26 06:15:05;;;;;;;;;16.50;15.75;;;;;21.98;62.65;101634.94;2422974;28;45503;-82
2022/08/26 06:16:19;;;;;;;;;18.50;13.75;;;;;22.00;62.14;101629.50;2423332;28;45365;-82
2022/08/26 06:17:30;;;;;;;;;19.75;14.25;;;;;22.03;62.41;101635.50;2423229;28;45614;-85
2022/08/26 06:18:43;;;;;;;;;18.50;16.75;;;;;22.05;62.26;101638.06;2423523;28;45215;-84
2022/08/26 06:19:53;;;;;;;;;20.75;19.50;;;;;22.04;61.83;101633.69;2421901;28;45366;-85
2022/08/26 06:21:23;;;;;;;;;20.50;16.50;;;;;22.02;62.39;101644.50;2422927;28;45451;-84
2022/08/26 06:25:37;;;;;;;;;17.00;13.25;;;;;21.94;62.27;101630.78;2422815;28;45668;-84
2022/08/26 06:26:52;;;;;;;;;19.00;18.25;;;;;21.97;62.51;101635.94;2422829;28;45308;-83
2022/08/26 06:28:04;;;;;;;;;20.75;19.50;;;;;21.96;62.56;101627.97;2423225;28;45428;-82
2022/08/26 06:29:14;;;;;;;;;15.50;11.50;;;;;21.96;61.95;101633.34;2423023;28;45310;-84
2022/08/26 06:30:25;;;;;;;;;20.75;17.25;;;;;21.94;62.23;101632.59;2422001;28;47938;-84
2022/08/26 06:31:36;;;;;;;;;21.75;17.25;;;;;21.94;62.38;101637.94;2415158;28;44666;-83
2022/08/26 06:32:46;;;;;;;;;12.50;12.00;;;;;21.94;62.27;101632.59;2424172;28;47861;-84
2022/08/26 06:33:57;;;;;;;;;18.25;18.25;;;;;21.95;62.98;101635.19;2429320;28;44701;-84
2022/08/26 06:35:07;;;;;;;;;20.75;17.50;;;;;21.96;62.30;101633.34;2422751;28;46380;-84
2022/08/26 06:36:23;;;;;;;;;13.75;12.25;;;;;21.99;62.10;101635.81;2422475;28;44714;-84
2022/08/26 06:37:33;;;;;;;;;18.00;16.75;;;;;21.98;62.61;101632.28;2422707;28;49019;-84
2022/08/26 06:38:45;;;;;;;;;19.00;16.50;;;;;22.00;62.42;101634.88;2423130;28;45367;-84
2022/08/26 06:39:56;;;;;;;;;21.75;20.25;;;;;22.00;62.64;101634.88;2422275;28;48320;-84
2022/08/26 06:41:10;;;;;;;;;17.50;16.50;;;;;21.98;62.06;101632.28;2422407;28;45409;-83
2022/08/26 06:42:21;;;;;;;;;20.00;19.00;;;;;21.99;62.46;101633.13;2422018;28;47944;-83
2022/08/26 06:43:31;;;;;;;;;21.75;19.75;;;;;21.98;62.08;101636.75;2415327;28;44740;-84
2022/08/26 06:44:42;;;;;;;;;17.00;15.00;;;;;21.96;62.04;101639.56;2422091;28;45549;-84
2022/08/26 06:46:01;;;;;;;;;15.50;14.50;;;;;21.97;62.16;101641.28;2422646;28;45295;-84
2022/08/26 06:47:12;;;;;;;;;19.75;16.00;;;;;21.97;62.08;101641.28;2422292;28;48001;-84
2022/08/26 06:48:22;;;;;;;;;20.50;17.00;;;;;21.99;62.53;101641.16;2415501;28;45305;-84
2022/08/26 06:49:32;;;;;;;;;22.25;17.25;;;;;22.01;62.44;101641.91;2422443;28;46211;-84
2022/08/26 06:50:43;;;;;;;;;19.50;14.50;;;;;22.03;62.22;101643.53;2422899;28;45408;-83
2022/08/26 06:51:56;;;;;;;;;19.00;15.25;;;;;22.03;62.24;101638.19;2422890;28;45313;-84
2022/08/26 06:53:09;;;;;;;;;18.25;15.75;;;;;22.05;61.63;101642.56;2423285;28;45249;-84
2022/08/26 06:54:20;;;;;;;;;17.25;13.00;;;;;22.02;62.00;101639.16;2422829;28;45525;-83
2022/08/26 06:55:30;;;;;;;;;19.00;16.75;;;;;22.00;62.08;101635.69;2422573;28;44675;-84
2022/08/26 06:56:42;;;;;;;;;18.00;15.50;;;;;22.00;61.52;101646.41;2421242;28;47010;-84
2022/08/26 06:57:52;;;;;;;;;19.00;16.50;;;;;22.01;62.11;101639.25;2422672;28;45408;-82
2022/08/26 06:59:03;;;;;;;;;15.75;14.25;;;;;22.02;61.60;101646.31;2422542;28;46432;-83
2022/08/26 07:00:14;;;;;;;;;12.25;12.00;;;;;22.03;62.20;101648.88;2422796;28;45180;-84
2022/08/26 07:01:30;;;;;;;;;13.75;13.50;;;;;22.05;62.11;101647.94;2421809;28;47550;-84
2022/08/26 07:02:41;;;;;;;;;14.75;12.50;;;;;22.03;61.60;101638.19;2422817;28;45409;-83
2022/08/26 07:03:57;;;;;;;;;17.75;17.75;;;;;22.07;61.68;101641.50;2422086;28;45599;-83
2022/08/26 07:05:08;;;;;;;;;17.75;15.75;;;;;22.06;61.58;101644.28;2430725;28;45172;-84
2022/08/26 07:06:18;;;;;;;;;17.75;16.50;;;;;22.09;61.76;101642.25;2428045;28;47896;-84
2022/08/26 07:07:29;;;;;;;;;16.25;14.75;;;;;22.11;61.32;101644.81;2413025;28;45398;-83
2022/08/26 07:08:39;;;;;;;;;13.50;13.50;;;;;22.12;61.76;101638.53;2414073;28;47995;-83
2022/08/26 07:09:50;;;;;;;;;15.50;13.00;;;;;22.14;61.04;101641.94;2421000;28;45413;-83
2022/08/26 07:11:05;;;;;;;;;20.25;14.00;;;;;22.16;61.15;101637.34;2422198;28;46458;-83
2022/08/26 07:12:16;;;;;;;;;12.00;11.25;;;;;22.19;61.18;101638.94;2420972;28;45433;-84
2022/08/26 07:13:26;;;;;;;;;10.50;9.50;;;;;22.21;61.16;101643.25;2421544;28;45701;-87
2022/08/26 07:14:37;;;;;;;;;19.50;18.25;;;;;22.23;60.95;101638.63;2421941;28;45632;-84
2022/08/26 07:15:48;;;;;;;;;17.00;14.50;;;;;22.24;61.16;101639.50;2421767;28;45452;-82
2022/08/26 07:17:00;;;;;;;;;11.25;11.00;;;;;22.23;61.15;101641.31;2422049;28;45258;-83
2022/08/26 07:18:10;;;;;;;;;13.25;11.00;;;;;22.20;60.80;101636.16;2422653;28;45469;-85
2022/08/26 07:19:21;;;;;;;;;15.25;12.00;;;;;22.23;60.69;101646.66;2422594;28;45217;-85
2022/08/26 07:20:35;;;;;;;;;15.75;12.75;;;;;22.24;60.78;101644.84;2421797;28;47426;-84
2022/08/26 07:21:46;;;;;;;;;13.75;10.25;;;;;22.25;60.76;101646.53;2422148;28;45351;-84
2022/08/26 07:22:57;;;;;;;;;16.50;13.75;;;;;22.26;60.75;101648.28;2421085;28;46197;-84
2022/08/26 07:24:09;;;;;;;;;16.75;14.25;;;;;22.30;60.45;101652.44;2422970;28;45182;-84
2022/08/26 07:25:19;;;;;;;;;12.00;10.25;;;;;22.32;61.18;101652.34;2421800;28;47021;-84
2022/08/26 07:26:30;;;;;;;;;15.75;14.25;;;;;22.32;60.74;101639.81;2421710;28;45272;-84
2022/08/26 07:27:40;;;;;;;;;15.75;14.00;;;;;22.35;60.92;101646.75;2422332;28;45419;-84
2022/08/26 07:28:53;;;;;;;;;15.25;12.75;;;;;22.38;60.90;101649.25;2422043;28;45271;-85
2022/08/26 07:30:05;;;;;;;;;19.25;15.50;;;;;22.41;60.64;101649.03;2422351;28;45416;-84
2022/08/26 07:31:16;;;;;;;;;16.50;14.25;;;;;22.46;60.28;101646.03;2422471;28;45401;-84
2022/08/26 07:32:26;;;;;;;;;11.75;11.25;;;;;22.47;60.87;101647.75;2422365;28;45166;-84
2022/08/26 07:33:38;;;;;;;;;11.75;10.25;;;;;22.51;60.69;101653.75;2418114;28;45748;-84
2022/08/26 07:34:48;;;;;;;;;13.00;13.00;;;;;22.52;60.13;101647.44;2421648;28;45637;-84
2022/08/26 07:35:59;;;;;;;;;14.00;13.75;;;;;22.51;60.39;101649.25;2422513;28;45460;-84
2022/08/26 07:37:09;;;;;;;;;14.75;12.25;;;;;22.52;60.41;101645.59;2421941;28;47117;-84
2022/08/26 07:38:19;;;;;;;;;13.75;12.50;;;;;22.53;60.51;101646.44;2421658;28;45270;-84
2022/08/26 07:39:31;;;;;;;;;13.50;12.00;;;;;22.58;60.42;101649.66;2422302;28;45369;-84
2022/08/26 07:40:41;;;;;;;;;16.75;16.50;;;;;22.57;60.08;101647.97;2422653;28;45467;-84
2022/08/26 07:41:52;;;;;;;;;13.00;11.50;;;;;22.57;59.83;101647.97;2421785;28;45435;-84
2022/08/26 07:43:03;;;;;;;;;15.25;11.75;;;;;22.54;59.94;101648.19;2422031;28;45350;-84
2022/08/26 07:44:14;;;;;;;;;13.00;12.25;;;;;22.55;60.08;101649.88;2421216;28;46273;-85
2022/08/26 07:45:24;;;;;;;;;14.75;10.75;;;;;22.53;60.06;101650.00;2422358;28;44775;-84
2022/08/26 07:46:35;;;;;;;;;12.00;11.75;;;;;22.55;59.82;101649.88;2421718;28;47236;-88
2022/08/26 07:47:46;;;;;;;;;15.25;13.50;;;;;22.55;59.92;101652.56;2421933;28;45373;-84
2022/08/26 07:48:57;;;;;;;;;12.25;12.25;;;;;22.57;59.68;101647.97;2414590;28;48030;-84
2022/08/26 07:50:08;;;;;;;;;15.75;13.00;;;;;22.59;59.89;101651.41;2421986;28;45204;-84
2022/08/26 07:51:20;;;;;;;;;10.75;10.75;;;;;22.62;59.38;101651.16;2421337;28;45246;-84
2022/08/26 07:52:30;;;;;;;;;18.25;16.25;;;;;22.63;59.34;101652.03;2418645;28;45672;-84
2022/08/26 07:53:41;;;;;;;;;14.50;11.50;;;;;22.64;59.76;101654.63;2421892;28;48134;-84
2022/08/26 07:54:52;;;;;;;;;15.25;14.25;;;;;22.65;59.22;101656.31;2421583;28;45439;-84
2022/08/26 07:56:03;;;;;;;;;10.00;6.00;;;;;22.64;59.86;101654.63;2421522;28;46314;-84
2022/08/26 07:57:14;;;;;;;;;13.00;12.00;;;;;22.66;59.64;101641.09;2422659;28;44677;-84
2022/08/26 07:58:24;;;;;;;;;13.50;12.00;;;;;22.69;59.63;101649.78;2421809;28;47970;-84
2022/08/26 07:59:34;;;;;;;;;10.25;9.50;;;;;22.72;59.09;101653.25;2421126;28;45219;-84
2022/08/26 08:00:46;;;;;;;;;15.75;12.50;;;;;22.72;58.82;101639.84;2421352;28;48279;-83
2022/08/26 08:01:58;;;;;;;;;15.00;14.00;;;;;22.72;59.16;101650.56;2414242;28;45277;-84
2022/08/26 08:03:09;;;;;;;;;15.25;12.00;;;;;22.70;58.66;101653.34;2419903;28;48313;-84
2022/08/26 08:04:19;;;;;;;;;12.25;11.75;;;;;22.70;58.52;101654.19;2414466;28;45453;-84
2022/08/26 08:05:31;;;;;;;;;8.25;8.25;;;;;22.73;58.74;101652.25;2421539;28;46481;-84
2022/08/26 08:06:42;;;;;;;;;7.75;7.75;;;;;22.75;58.77;101653.00;2422197;28;45790;-84
2022/08/26 08:07:52;;;;;;;;;15.50;11.75;;;;;22.78;58.45;101655.47;2422007;28;45269;-83
2022/08/26 08:09:04;;;;;;;;;10.50;8.75;;;;;22.81;58.83;101649.91;2422692;28;45363;-83
2022/08/26 08:10:21;;;;;;;;;11.25;9.00;;;;;22.86;58.73;101645.06;2422454;28;46271;-84
2022/08/26 08:11:32;;;;;;;;;12.00;10.00;;;;;22.89;58.99;101652.03;2421559;28;44788;-83
2022/08/26 08:12:43;;;;;;;;;17.00;12.75;;;;;22.92;58.67;101655.34;2421516;28;45421;-84
2022/08/26 08:13:54;;;;;;;;;10.50;10.50;;;;;22.96;58.02;101660.50;2421628;28;45349;-83
2022/08/26 08:15:06;;;;;;;;;11.75;10.00;;;;;22.98;58.25;101659.41;2421859;28;45598;-83
2022/08/26 08:16:17;;;;;;;;;12.00;10.00;;;;;22.98;58.23;101651.38;2422617;28;45132;-83
2022/08/26 08:17:27;;;;;;;;;13.50;12.25;;;;;23.00;58.30;101654.81;2422345;28;45345;-83
2022/08/26 08:18:38;;;;;;;;;12.25;11.00;;;;;23.02;58.00;101654.69;2421812;28;44920;-82
2022/08/26 16:13:20;;;;;;;;;7.00;5.00;;;;;27.67;38.87;101366.22;2702365;22;44846;-85
2022/08/26 16:14:31;;;;;;;;;4.75;4.25;;;;;27.67;38.77;101366.22;2418356;28;45570;-85
2022/08/26 16:15:41;;;;;;;;;4.00;4.00;;;;;27.67;39.61;101364.38;2419757;28;44761;-85
2022/08/26 16:16:52;;;;;;;;;3.00;3.00;;;;;27.68;39.21;101365.25;2422438;28;46106;-85
2022/08/26 16:18:03;;;;;;;;;5.50;5.50;;;;;27.71;38.82;101367.63;2421145;28;45164;-83
2022/08/26 16:19:14;;;;;;;;;5.00;4.00;;;;;27.71;39.11;101365.78;2418097;28;45818;-82
2022/08/26 16:20:24;;;;;;;;;3.75;3.75;;;;;27.71;39.06;101363.09;2412160;28;45413;-83
2022/08/26 16:21:35;;;;;;;;;5.00;5.00;;;;;27.72;38.93;101358.53;2418128;28;46323;-83
2022/08/26 16:22:45;;;;;;;;;4.75;4.75;;;;;27.72;38.70;101358.53;2421392;28;45302;-84
2022/08/26 16:23:56;;;;;;;;;4.00;4.00;;;;;27.73;38.55;101363.78;2422104;28;45306;-83
2022/08/26 16:25:07;;;;;;;;;3.50;3.50;;;;;27.74;38.70;101364.63;2431075;28;44774;-83
2022/08/26 16:26:21;;;;;;;;;3.50;3.50;;;;;27.73;38.37;101368.34;2427790;28;45376;-84
2022/08/26 16:27:31;;;;;;;;;5.00;5.00;;;;;27.74;38.25;101360.09;2422071;28;45293;-84
2022/08/26 16:28:42;;;;;;;;;4.25;4.25;;;;;27.74;38.22;101354.69;2421875;28;45577;-84
2022/08/26 16:29:52;;;;;;;;;6.00;5.00;;;;;27.73;38.21;101361.06;2421225;28;45440;-84
2022/08/26 16:31:02;;;;;;;;;3.25;3.25;;;;;27.74;38.54;101365.50;2420248;28;47549;-84
2022/08/26 16:32:13;;;;;;;;;7.00;5.00;;;;;27.74;38.36;101353.84;2421642;28;45254;-84
2022/08/26 16:33:23;;;;;;;;;4.75;4.75;;;;;27.73;38.25;101352.16;2421459;28;46447;-84
2022/08/26 16:34:34;;;;;;;;;5.00;4.25;;;;;27.73;38.42;101354.84;2421663;28;45235;-84
2022/08/26 16:35:45;;;;;;;;;5.00;4.00;;;;;27.74;38.12;101361.94;2422236;28;45278;-84
2022/08/26 16:36:55;;;;;;;;;4.50;4.50;;;;;27.74;38.40;101356.53;2421725;28;44639;-84
2022/08/26 16:38:06;;;;;;;;;4.25;4.00;;;;;27.73;38.22;101355.69;2421859;28;46471;-84
2022/08/26 16:39:16;;;;;;;;;7.25;5.25;;;;;27.72;38.33;101362.09;2418068;28;45192;-84
2022/08/26 16:40:27;;;;;;;;;6.00;3.75;;;;;27.73;38.56;101361.06;2416808;28;46211;-84
2022/08/26 16:41:38;;;;;;;;;6.00;5.00;;;;;27.72;38.12;101364.78;2421267;28;45292;-84
2022/08/26 16:42:49;;;;;;;;;3.75;3.75;;;;;27.70;38.23;101356.00;2421237;28;48330;-84
2022/08/26 16:43:59;;;;;;;;;3.50;3.50;;;;;27.69;38.30;101356.13;2421469;28;45414;-84
2022/08/26 16:45:10;;;;;;;;;5.00;5.00;;;;;27.69;38.10;101359.69;2422185;28;45382;-84
2022/08/26 16:46:24;;;;;;;;;4.50;4.50;;;;;27.70;38.28;101360.53;2421405;28;45255;-84
2022/08/26 16:47:34;;;;;;;;;4.50;3.00;;;;;27.69;37.77;101356.13;2419067;28;45467;-84
2022/08/26 16:48:45;;;;;;;;;4.50;4.25;;;;;27.69;38.22;101353.44;2421150;28;45423;-84
2022/08/26 16:49:55;;;;;;;;;4.00;4.00;;;;;27.69;37.97;101356.97;2420330;28;46243;-84
2022/08/26 16:51:10;;;;;;;;;3.00;2.25;;;;;27.70;38.13;101353.31;2412789;28;44588;-85
2022/08/26 16:52:20;;;;;;;;;5.25;4.25;;;;;27.71;38.25;101354.13;2422152;28;46334;-85
2022/08/26 16:53:32;;;;;;;;;3.00;3.00;;;;;27.70;38.18;101344.34;2421886;28;45461;-85
2022/08/26 16:54:42;;;;;;;;;4.50;4.25;;;;;27.69;38.30;101339.94;2421354;28;45633;-85
2022/08/26 16:55:53;;;;;;;;;7.00;5.00;;;;;27.72;38.26;101353.13;2428528;28;45402;-85
2022/08/26 16:57:05;;;;;;;;;4.25;4.25;;;;;27.71;38.18;101348.72;2427308;28;47041;-84
2022/08/26 16:58:17;;;;;;;;;5.00;3.50;;;;;27.72;38.64;101345.03;2422392;28;45407;-85
2022/08/26 16:59:27;;;;;;;;;5.25;4.00;;;;;27.70;37.81;101353.31;2421444;28;46306;-85
2022/08/26 17:00:38;;;;;;;;;5.50;5.50;;;;;27.71;38.52;101346.03;2431258;28;45213;-85
2022/08/26 17:01:48;;;;;;;;;3.50;3.50;;;;;27.71;38.69;101341.47;2421206;28;47059;-85
2022/08/26 17:02:59;;;;;;;;;5.00;3.75;;;;;27.71;38.24;101340.63;2421689;28;45285;-85
2022/08/26 17:04:10;;;;;;;;;3.25;3.00;;;;;27.71;37.90;101340.63;2421403;28;47044;-85
2022/08/26 17:05:21;;;;;;;;;6.50;5.00;;;;;27.71;37.75;101346.03;2413115;28;44722;-84
2022/08/26 17:06:32;;;;;;;;;5.25;4.00;;;;;27.70;38.04;101338.94;2427755;28;48278;-85
2022/08/26 17:07:43;;;;;;;;;5.00;5.00;;;;;27.69;38.05;101342.63;2416928;28;45347;-85
2022/08/26 17:08:53;;;;;;;;;5.50;4.00;;;;;27.69;38.64;101342.63;2415518;28;47294;-85
2022/08/26 17:10:06;;;;;;;;;5.25;4.00;;;;;27.68;38.15;101341.78;2428420;28;45275;-85
2022/08/26 17:11:17;;;;;;;;;5.50;5.50;;;;;27.66;38.30;101341.06;2421435;28;45525;-84
2022/08/26 17:12:28;;;;;;;;;5.75;5.75;;;;;27.62;38.21;101343.25;2421355;28;45218;-84
2022/08/26 17:13:38;;;;;;;;;6.00;6.00;;;;;27.62;38.46;101342.38;2423375;28;45366;-85
2022/08/26 17:14:49;;;;;;;;;5.25;5.25;;;;;27.60;38.53;101342.53;2427616;28;45121;-84
2022/08/26 17:16:00;;;;;;;;;7.50;7.00;;;;;27.58;37.64;101339.16;2429146;28;46335;-84
2022/08/26 17:17:10;;;;;;;;;4.00;4.00;;;;;27.55;38.97;101336.75;2431612;28;44765;-84
2022/08/26 17:18:23;;;;;;;;;6.00;4.75;;;;;27.50;38.32;101339.88;2422387;28;45374;-85
2022/08/26 17:19:33;;;;;;;;;4.00;4.00;;;;;27.52;38.48;101337.03;2426804;28;45244;-85
2022/08/26 17:20:44;;;;;;;;;6.00;5.00;;;;;27.50;38.23;101345.28;2420414;28;48448;-85
2022/08/26 17:21:54;;;;;;;;;5.25;3.25;;;;;27.48;38.06;101330.25;2422667;28;45447;-84
2022/08/26 17:23:05;;;;;;;;;4.00;4.00;;;;;27.47;38.14;101333.94;2431566;28;46262;-85
2022/08/26 17:24:15;;;;;;;;;4.00;4.00;;;;;27.45;38.20;101338.63;2431233;28;45165;-85
2022/08/26 17:25:29;;;;;;;;;3.75;3.00;;;;;27.44;38.07;101335.06;2430812;28;48105;-85
2022/08/26 17:26:43;;;;;;;;;4.75;3.50;;;;;27.44;38.48;101334.22;2431180;28;44674;-85
2022/08/26 17:27:53;;;;;;;;;5.75;5.00;;;;;27.45;38.37;101341.31;2420545;28;47228;-85
2022/08/26 17:29:06;;;;;;;;;5.75;5.75;;;;;27.44;39.10;101331.50;2424188;28;44615;-85
2022/08/26 17:30:16;;;;;;;;;5.50;5.50;;;;;27.45;38.41;101336.78;2421274;28;47460;-85
2022/08/26 17:31:27;;;;;;;;;6.50;5.25;;;;;27.45;38.30;101346.72;2424246;28;45234;-85
2022/08/26 17:32:38;;;;;;;;;4.50;3.00;;;;;27.45;38.53;101341.31;2426257;28;46946;-85
2022/08/26 17:33:48;;;;;;;;;4.50;4.50;;;;;27.43;38.22;101328.00;2419292;28;45359;-85
2022/08/26 17:34:59;;;;;;;;;4.00;4.00;;;;;27.41;38.63;101336.22;2414406;28;47209;-85
2022/08/26 17:36:10;;;;;;;;;3.75;3.75;;;;;27.43;38.33;101325.28;2414405;28;45434;-85
2022/08/26 17:37:20;;;;;;;;;4.00;4.00;;;;;27.42;38.28;101332.53;2421399;28;46212;-85
2022/08/26 17:38:31;;;;;;;;;3.25;3.25;;;;;27.44;37.85;101331.50;2414791;28;45446;-84
2022/08/26 17:39:42;;;;;;;;;4.75;4.00;;;;;27.43;38.50;101328.00;2414472;28;45428;-85
2022/08/26 17:40:53;;;;;;;;;5.00;4.00;;;;;27.42;38.01;101334.38;2431621;28;44548;-85
2022/08/26 17:42:04;;;;;;;;;5.00;4.25;;;;;27.41;37.69;101322.72;2427423;28;47797;-85
2022/08/26 17:43:14;;;;;;;;;2.25;2.25;;;;;27.44;38.29;101328.81;2417363;28;46092;-85
2022/08/26 17:44:25;;;;;;;;;3.50;3.50;;;;;27.44;38.74;101326.97;2422226;28;46707;-85
2022/08/26 17:45:38;;;;;;;;;3.75;3.75;;;;;27.46;37.94;101335.75;2418158;28;45411;-85
2022/08/26 17:46:48;;;;;;;;;3.25;3.25;;;;;27.45;38.20;101328.69;2409695;28;47333;-85
2022/08/26 17:47:59;;;;;;;;;3.75;3.75;;;;;27.45;37.87;101330.53;2413252;28;45347;-85
2022/08/26 17:49:09;;;;;;;;;5.25;3.00;;;;;27.44;37.65;101328.81;2416829;28;47839;-85
2022/08/26 17:50:21;;;;;;;;;5.50;4.00;;;;;27.41;37.59;101328.13;2422117;28;45276;-85
2022/08/26 17:51:32;;;;;;;;;4.00;4.00;;;;;27.41;37.27;101327.25;2427341;28;48039;-85
2022/08/26 17:52:43;;;;;;;;;3.25;3.25;;;;;27.40;37.61;101329.13;2429815;28;45340;-85
2022/08/26 17:53:54;;;;;;;;;4.00;4.00;;;;;27.39;38.05;101329.25;2426721;28;45424;-85
2022/08/26 17:55:06;;;;;;;;;5.75;5.25;;;;;27.40;37.63;101325.56;2427312;28;45365;-85
2022/08/26 17:56:22;;;;;;;;;4.25;4.00;;;;;27.39;37.41;101324.72;2429993;28;46714;-85
2022/08/26 17:57:33;;;;;;;;;5.00;5.00;;;;;27.38;37.48;101328.44;2429744;28;45534;-85
2022/08/26 17:58:44;;;;;;;;;4.00;4.00;;;;;27.38;37.97;101323.03;2417736;28;47048;-85
2022/08/26 17:59:54;;;;;;;;;5.00;5.00;;;;;27.36;37.22;101325.00;2416350;28;45304;-84
2022/08/26 18:01:05;;;;;;;;;5.25;5.25;;;;;27.36;37.89;101324.19;2413582;28;46851;-85
2022/08/26 18:02:16;;;;;;;;;6.75;4.75;;;;;27.36;38.13;101329.59;2422590;28;45069;-85
2022/08/26 18:03:26;;;;;;;;;6.00;3.25;;;;;27.35;38.14;101325.16;2424930;28;45492;-85
2022/08/26 18:04:36;;;;;;;;;6.25;5.00;;;;;27.33;37.87;101325.34;2430860;28;45263;-85
2022/08/26 18:05:49;;;;;;;;;5.00;5.00;;;;;27.34;37.43;101324.31;2418065;28;47382;-85
2022/08/26 18:07:00;;;;;;;;;4.00;4.00;;;;;27.32;37.80;101331.72;2420609;28;45418;-85
2022/08/26 18:08:10;;;;;;;;;4.00;4.00;;;;;27.32;38.02;101337.09;2420372;28;46873;-84
2022/08/26 18:09:20;;;;;;;;;3.25;3.25;;;;;27.30;37.83;101322.91;2421215;28;45241;-84
2022/08/26 18:10:31;;;;;;;;;5.25;5.00;;;;;27.31;37.66;101327.34;2432031;28;45287;-84
2022/08/26 18:11:42;;;;;;;;;4.75;4.75;;;;;27.30;37.50;101331.00;2421805;28;45368;-84
2022/08/26 18:12:52;;;;;;;;;6.00;5.00;;;;;27.29;38.06;101335.56;2424411;28;45386;-84
2022/08/26 18:14:03;;;;;;;;;4.75;4.75;;;;;27.29;37.94;101337.41;2429362;28;45264;-84
2022/08/26 18:15:15;;;;;;;;;4.50;3.00;;;;;27.26;37.40;101327.75;2414055;28;47161;-84
2022/08/26 18:16:30;;;;;;;;;4.00;4.00;;;;;27.23;37.86;101333.47;2411040;28;45475;-84
2022/08/26 18:17:41;;;;;;;;;5.00;4.25;;;;;27.22;37.42;101336.28;2422051;28;45630;-84
2022/08/26 18:18:52;;;;;;;;;4.25;3.00;;;;;27.21;37.48;101343.56;2430124;28;45548;-85
2022/08/26 18:20:04;;;;;;;;;5.25;4.00;;;;;27.19;38.26;101334.72;2421933;28;47436;-85
2022/08/26 18:21:20;;;;;;;;;5.00;5.00;;;;;27.20;37.94;101344.53;2420771;28;45577;-84
2022/08/26 18:22:30;;;;;;;;;3.50;3.50;;;;;27.18;37.60;101341.13;2415817;28;47082;-85
2022/08/26 18:23:41;;;;;;;;;8.25;6.00;;;;;27.15;37.90;101344.97;2421126;28;45493;-84
2022/08/26 18:24:52;;;;;;;;;4.50;4.25;;;;;27.14;37.68;101345.13;2427483;28;45364;-84
2022/08/26 18:26:02;;;;;;;;;5.25;5.25;;;;;27.13;37.50;101344.28;2419435;28;44789;-83
2022/08/26 18:27:12;;;;;;;;;3.50;3.50;;;;;27.11;37.78;101334.59;2422224;28;46442;-82
2022/08/26 18:28:23;;;;;;;;;5.25;4.00;;;;;27.10;37.72;101344.53;2427162;28;45291;-82
2022/08/26 18:29:33;;;;;;;;;1.50;1.25;;;;;27.10;37.54;101340.97;2430519;28;45323;-83
2022/08/26 18:30:44;;;;;;;;;7.25;4.00;;;;;27.09;37.57;101342.81;2425604;28;45266;-83
2022/08/26 18:31:54;;;;;;;;;5.00;4.00;;;;;27.08;37.23;101341.13;2419291;28;46221;-83
2022/08/26 18:33:05;;;;;;;;;5.00;5.00;;;;;27.08;37.15;101346.53;2418263;28;45401;-83
2022/08/26 18:34:15;;;;;;;;;5.50;5.00;;;;;27.07;37.44;101344.81;2421808;28;48079;-83
2022/08/26 18:35:28;;;;;;;;;3.00;3.00;;;;;27.05;37.45;101344.97;2413797;28;45269;-83
2022/08/26 18:36:39;;;;;;;;;4.75;3.00;;;;;27.06;36.94;101349.34;2422855;28;45514;-83
2022/08/26 18:37:49;;;;;;;;;5.00;5.00;;;;;27.05;37.02;101350.38;2420722;28;45560;-82
2022/08/26 18:39:01;;;;;;;;;3.00;3.00;;;;;27.04;36.88;101350.53;2423464;28;47993;-83
2022/08/26 18:40:13;;;;;;;;;6.75;5.00;;;;;27.02;37.35;101357.88;2428376;28;45391;-83
2022/08/26 18:41:26;;;;;;;;;4.75;4.75;;;;;27.00;37.67;101354.47;2424789;28;45395;-83
2022/08/26 18:42:36;;;;;;;;;3.00;3.00;;;;;26.97;37.64;101348.38;2427523;28;45223;-83
2022/08/26 18:43:49;;;;;;;;;3.25;3.25;;;;;26.95;37.10;101353.09;2429882;28;48320;-83
2022/08/26 18:45:00;;;;;;;;;3.00;3.00;;;;;26.94;37.22;101348.66;2430864;28;45453;-83
2022/08/26 18:46:10;;;;;;;;;3.00;3.00;;;;;26.92;37.27;101358.75;2428871;28;45499;-83
2022/08/26 18:47:21;;;;;;;;;3.00;3.00;;;;;26.92;37.17;101363.28;2426788;28;45390;-83
2022/08/26 18:48:33;;;;;;;;;7.25;5.00;;;;;26.91;37.12;101350.81;2429428;28;46285;-83
2022/08/26 18:49:45;;;;;;;;;3.00;3.00;;;;;26.89;37.57;101359.03;2427643;28;44733;-83
2022/08/26 18:50:58;;;;;;;;;8.00;6.00;;;;;26.89;37.34;101361.72;2421232;28;47267;-83
2022/08/26 18:52:09;;;;;;;;;6.50;6.50;;;;;26.88;37.61;101360.03;2422643;28;44819;-83